Time;durP1;ratioP1;P1;durP2;ratioP2;P2;SDS_P1;SDS_P2;PMS_P1;PMS_P2;Temp;Humidity;BMP_temperature;BMP_pressure;BME280_temperature;BME280_humidity;BME280_pressure;Samples;Min_cycle;Max_cycle;Signal;HPM_P1;HPM_P2
2021/05/23 00:00:22;;;;;;;2.90;0.43;;;;;;;6.53;91.77;92734.63;2115525;28;20090;-88
2021/05/23 00:01:25;;;;;;;0.82;0.75;;;;;;;6.46;91.64;92737.41;2118012;27;20056;-88
2021/05/23 00:02:26;;;;;;;2.33;0.50;;;;;;;6.45;92.08;92733.22;2102488;28;20099;-89
2021/05/23 00:03:27;;;;;;;2.38;0.57;;;;;;;6.42;91.53;92724.16;2115311;28;20027;-88
2021/05/23 00:04:28;;;;;;;0.57;0.47;;;;;;;6.37;92.56;92721.19;2106790;28;20020;-87
2021/05/23 00:05:29;;;;;;;1.63;0.60;;;;;;;6.40;92.39;92712.41;2098667;28;20036;-89
2021/05/23 00:06:30;;;;;;;0.77;0.50;;;;;;;6.45;92.01;92710.09;2107429;28;20056;-88
2021/05/23 00:07:37;;;;;;;0.70;0.52;;;;;;;6.50;91.84;92712.31;2098556;28;20020;-89
2021/05/23 00:08:37;;;;;;;2.08;0.60;;;;;;;6.47;91.90;92713.09;2107712;28;20034;-88
2021/05/23 00:09:40;;;;;;;1.75;0.50;;;;;;;6.51;91.74;92718.34;2107063;28;20028;-88
2021/05/23 00:10:51;;;;;;;3.33;0.70;;;;;;;6.54;91.51;92715.66;2098921;28;20103;-88
2021/05/23 00:11:53;;;;;;;2.38;0.52;;;;;;;6.50;91.59;92716.88;2093107;28;20029;-88
2021/05/23 00:12:55;;;;;;;1.17;0.60;;;;;;;6.44;92.38;92713.13;2107107;28;20027;-88
2021/05/23 00:13:55;;;;;;;0.95;0.50;;;;;;;6.44;92.20;92707.81;2106333;28;20020;-87
2021/05/23 00:14:56;;;;;;;0.57;0.50;;;;;;;6.47;92.14;92709.69;2106750;28;20427;-89
2021/05/23 00:16:13;;;;;;;0.77;0.55;;;;;;;6.38;92.09;92720.03;2098616;28;20073;-88
2021/05/23 00:17:14;;;;;;;1.60;0.50;;;;;;;6.37;93.01;92718.53;2092951;28;20045;-88
2021/05/23 00:18:15;;;;;;;1.20;0.50;;;;;;;6.39;92.49;92719.63;2090392;28;20040;-89
2021/05/23 00:19:17;;;;;;;1.75;0.60;;;;;;;6.33;92.94;92715.19;2098911;28;20024;-88
2021/05/23 00:20:18;;;;;;;0.60;0.45;;;;;;;6.44;93.10;92713.13;2099125;28;20024;-88
2021/05/23 00:21:21;;;;;;;1.55;0.60;;;;;;;6.43;92.29;92720.34;2098791;28;20036;-88
2021/05/23 00:22:21;;;;;;;1.00;0.63;;;;;;;6.39;92.75;92716.22;2099552;28;20032;-88
2021/05/23 00:23:22;;;;;;;1.75;0.70;;;;;;;6.35;92.75;92720.84;2107588;28;20071;-88
2021/05/23 00:24:26;;;;;;;1.50;0.60;;;;;;;6.35;93.20;92718.94;2115800;28;20055;-88
2021/05/23 00:25:27;;;;;;;0.98;0.60;;;;;;;6.33;93.22;92723.16;2107239;28;20020;-88
2021/05/23 00:26:28;;;;;;;1.67;0.60;;;;;;;6.26;93.21;92727.38;2107442;28;20016;-88
2021/05/23 00:27:28;;;;;;;3.65;0.50;;;;;;;6.26;93.29;92723.97;2116333;28;20064;-89
2021/05/23 00:28:31;;;;;;;0.95;0.57;;;;;;;6.20;93.15;92722.91;2103358;28;20028;-87
2021/05/23 00:29:31;;;;;;;1.33;1.00;;;;;;;6.36;92.96;92724.97;2098233;28;20044;-87
2021/05/23 00:30:33;;;;;;;0.75;0.60;;;;;;;6.33;92.52;92725.81;2098194;28;20021;-88
2021/05/23 00:31:34;;;;;;;1.50;0.60;;;;;;;6.30;92.42;92724.69;2106244;28;20078;-89
2021/05/23 00:32:35;;;;;;;0.70;0.55;;;;;;;6.29;93.21;92731.91;2097592;28;20051;-88
2021/05/23 00:33:36;;;;;;;1.75;0.60;;;;;;;6.44;92.30;92729.81;2095927;28;20048;-86
2021/05/23 00:34:37;;;;;;;2.60;0.70;;;;;;;6.35;91.80;92728.78;2093539;28;20025;-86
2021/05/23 00:35:38;;;;;;;0.50;0.50;;;;;;;6.39;92.41;92734.81;2106195;28;20021;-87
2021/05/23 00:36:39;;;;;;;0.88;0.60;;;;;;;6.47;92.05;92731.69;2114806;28;20023;-87
2021/05/23 00:37:40;;;;;;;1.38;0.40;;;;;;;6.47;90.70;92729.03;2106088;28;20519;-87
2021/05/23 00:38:43;;;;;;;1.55;0.65;;;;;;;6.40;91.64;92734.41;2105860;28;20031;-88
2021/05/23 00:39:43;;;;;;;0.60;0.50;;;;;;;6.50;90.96;92724.81;2105480;28;20111;-90
2021/05/23 00:40:44;;;;;;;0.68;0.60;;;;;;;6.43;91.72;92736.28;2101470;28;20016;-87
2021/05/23 00:41:45;;;;;;;0.93;0.50;;;;;;;6.36;92.66;92739.00;2115720;28;20112;-88
2021/05/23 00:42:46;;;;;;;0.90;0.55;;;;;;;6.44;92.46;92737.03;2107040;28;20032;-88
2021/05/23 00:43:46;;;;;;;0.50;0.50;;;;;;;6.32;91.99;92746.25;2115342;28;20019;-88
2021/05/23 00:44:47;;;;;;;1.88;0.52;;;;;;;6.31;91.99;92739.44;2122503;27;20110;-89
2021/05/23 00:45:50;;;;;;;0.93;0.55;;;;;;;6.34;92.22;92748.53;2106150;28;20024;-87
2021/05/23 00:46:50;;;;;;;2.53;0.82;;;;;;;6.34;93.11;92738.66;2098694;28;20028;-88
2021/05/23 00:47:51;;;;;;;0.77;0.40;;;;;;;6.43;92.47;92744.25;2098445;28;20025;-87
2021/05/23 00:48:52;;;;;;;0.60;0.50;;;;;;;6.56;91.14;92745.22;2098123;28;20020;-87
2021/05/23 00:49:53;;;;;;;2.35;0.60;;;;;;;6.50;91.44;92740.75;2098255;28;20037;-87
2021/05/23 00:50:54;;;;;;;2.17;0.60;;;;;;;6.45;92.24;92749.91;2098194;28;20020;-88
2021/05/23 00:51:55;;;;;;;0.95;0.68;;;;;;;6.42;93.12;92748.06;2106742;28;20389;-88
2021/05/23 00:52:56;;;;;;;2.63;0.70;;;;;;;6.43;93.34;92748.81;2094174;28;20433;-88
2021/05/23 00:53:56;;;;;;;0.85;0.55;;;;;;;6.44;93.18;92759.00;2087697;28;20025;-90
2021/05/23 00:54:57;;;;;;;2.95;0.80;;;;;;;6.39;93.25;92762.09;2081744;28;20466;-88
2021/05/23 00:55:58;;;;;;;1.33;0.57;;;;;;;6.44;93.50;92758.25;2089861;28;20020;-88
2021/05/23 00:56:59;;;;;;;1.75;0.65;;;;;;;6.41;93.29;92764.34;2090096;28;20025;-88
2021/05/23 00:58:00;;;;;;;1.85;0.70;;;;;;;6.47;94.23;92760.88;2104133;28;20020;-89
2021/05/23 00:59:01;;;;;;;2.38;0.60;;;;;;;6.43;92.79;92762.06;2108496;28;20091;-89
2021/05/23 01:00:06;;;;;;;1.73;0.70;;;;;;;6.44;92.77;92764.31;2098149;28;20035;-87
2021/05/23 01:01:12;;;;;;;0.50;0.50;;;;;;;6.46;91.88;92758.63;2098865;28;20020;-88
2021/05/23 01:02:12;;;;;;;3.03;0.70;;;;;;;6.44;91.68;92758.25;2098921;28;20016;-88
2021/05/23 01:03:25;;;;;;;1.15;0.60;;;;;;;6.49;90.25;92761.22;2089745;28;20554;-88
2021/05/23 01:04:26;;;;;;;2.15;0.77;;;;;;;6.55;90.62;92761.56;2101016;28;20107;-88
2021/05/23 01:05:26;;;;;;;0.95;0.68;;;;;;;6.57;91.08;92762.63;2109457;27;20031;-88
2021/05/23 01:06:31;;;;;;;2.28;0.80;;;;;;;6.63;90.83;92764.84;2114878;28;20027;-88
2021/05/23 01:07:31;;;;;;;2.00;0.60;;;;;;;6.65;91.95;92773.94;2106419;28;20097;-88
2021/05/23 01:08:35;;;;;;;1.55;0.70;;;;;;;6.63;92.42;92760.31;2097657;28;20025;-88
2021/05/23 01:09:36;;;;;;;0.75;0.63;;;;;;;6.62;92.18;92766.00;2098382;28;20020;-88
2021/05/23 01:11:06;;;;;;;1.25;0.60;;;;;;;6.60;92.60;92763.00;2089771;28;20485;-88
2021/05/23 01:12:47;;;;;;;0.68;0.57;;;;;;;6.57;94.00;92765.31;2097889;28;20081;-88
2021/05/23 01:13:59;;;;;;;0.82;0.60;;;;;;;6.63;91.34;92757.66;2108860;28;20476;-88
2021/05/23 01:15:01;;;;;;;1.20;0.57;;;;;;;6.50;89.53;92760.09;2099394;28;20031;-88
2021/05/23 01:16:07;;;;;;;1.77;0.70;;;;;;;6.42;93.20;92760.56;2098080;28;20020;-87
2021/05/23 01:17:11;;;;;;;0.45;0.40;;;;;;;6.38;94.06;92765.91;2107267;28;20024;-89
2021/05/23 01:18:14;;;;;;;0.70;0.50;;;;;;;6.33;95.89;92769.00;2114263;28;20024;-89
2021/05/23 01:19:35;;;;;;;1.88;0.68;;;;;;;6.40;94.79;92765.50;2098183;28;20016;-87
2021/05/23 01:20:57;;;;;;;1.15;0.60;;;;;;;6.39;95.19;92764.75;2100574;28;20031;-87
2021/05/23 01:22:05;;;;;;;0.70;0.65;;;;;;;6.48;93.52;92754.41;2096522;28;20107;-87
2021/05/23 01:23:22;;;;;;;1.65;0.50;;;;;;;6.35;92.62;92758.75;2107286;28;20028;-87
2021/05/23 01:24:40;;;;;;;1.10;0.50;;;;;;;6.38;93.27;92765.91;2099828;28;20114;-87
2021/05/23 01:25:44;;;;;;;1.58;0.60;;;;;;;6.36;92.85;92767.47;2104650;28;20032;-89
2021/05/23 01:26:52;;;;;;;1.08;0.50;;;;;;;6.38;93.82;92767.81;2097817;28;20052;-87
2021/05/23 01:27:53;;;;;;;1.98;0.60;;;;;;;6.35;94.10;92768.59;2091388;28;20021;-88
2021/05/23 01:28:58;;;;;;;0.93;0.68;;;;;;;6.30;91.75;92759.94;2106450;28;20055;-88
2021/05/23 01:30:00;;;;;;;2.45;0.55;;;;;;;6.28;93.15;92767.56;2114872;28;20023;-89
2021/05/23 01:31:07;;;;;;;1.38;0.50;;;;;;;6.35;92.28;92756.09;2098059;28;20024;-88
2021/05/23 01:32:08;;;;;;;3.95;0.60;;;;;;;6.21;92.62;92756.25;2098744;28;20096;-88
2021/05/23 01:33:12;;;;;;;1.55;0.55;;;;;;;6.23;94.70;92753.94;2098256;28;20025;-88
2021/05/23 01:34:20;;;;;;;0.60;0.50;;;;;;;6.22;94.59;92758.50;2093151;28;20035;-86
2021/05/23 01:35:31;;;;;;;0.95;0.63;;;;;;;6.30;93.52;92761.84;2107125;28;20054;-88
2021/05/23 01:36:38;;;;;;;0.70;0.47;;;;;;;6.27;94.75;92768.69;2099414;28;20017;-89
2021/05/23 01:37:39;;;;;;;1.17;0.50;;;;;;;6.22;95.71;92768.38;2098751;28;20588;-87
2021/05/23 01:38:40;;;;;;;0.60;0.50;;;;;;;6.18;96.65;92762.34;2097930;28;20028;-89
2021/05/23 01:39:41;;;;;;;1.65;0.75;;;;;;;6.22;97.33;92763.81;2089607;28;20021;-88
2021/05/23 01:40:43;;;;;;;2.97;0.60;;;;;;;6.10;96.27;92752.94;2097859;28;20505;-88
2021/05/23 01:41:44;;;;;;;1.02;0.50;;;;;;;6.11;96.51;92749.19;2106369;28;20020;-88
2021/05/23 01:42:47;;;;;;;0.50;0.40;;;;;;;6.16;97.03;92744.19;2106330;28;20044;-88
2021/05/23 01:43:49;;;;;;;1.15;0.50;;;;;;;6.12;97.53;92758.63;2097973;28;20032;-89
2021/05/23 01:44:50;;;;;;;2.58;0.57;;;;;;;6.09;97.39;92764.72;2089877;28;20028;-87
2021/05/23 01:45:52;;;;;;;0.43;0.43;;;;;;;6.08;97.90;92763.22;2089478;28;20020;-88
2021/05/23 01:46:53;;;;;;;0.63;0.50;;;;;;;6.11;97.16;92768.50;2090066;28;20025;-88
2021/05/23 01:47:53;;;;;;;1.02;0.52;;;;;;;6.10;97.76;92766.22;2097884;28;20024;-88
2021/05/23 01:48:54;;;;;;;0.70;0.50;;;;;;;6.13;97.73;92763.53;2097702;28;20111;-87
2021/05/23 01:49:55;;;;;;;1.38;0.50;;;;;;;6.01;98.48;92769.34;2097817;28;20093;-88
2021/05/23 01:50:56;;;;;;;1.90;0.60;;;;;;;6.00;98.29;92763.28;2101965;28;20404;-88
2021/05/23 01:51:56;;;;;;;1.13;0.50;;;;;;;5.99;98.38;92772.41;2106250;28;20023;-87
2021/05/23 01:53:02;;;;;;;2.05;0.50;;;;;;;6.09;97.64;92778.75;2106276;28;20027;-88
2021/05/23 01:54:03;;;;;;;3.47;0.57;;;;;;;6.07;96.82;92769.69;2106624;28;20372;-88
2021/05/23 01:55:04;;;;;;;2.65;0.60;;;;;;;6.03;96.84;92772.38;2097823;28;20118;-88
2021/05/23 01:56:05;;;;;;;0.60;0.40;;;;;;;5.94;96.84;92780.78;2097854;28;20036;-88
2021/05/23 01:57:06;;;;;;;0.50;0.40;;;;;;;6.10;96.44;92776.84;2100093;28;20024;-88
2021/05/23 01:58:07;;;;;;;1.70;0.70;;;;;;;6.06;97.72;92782.19;2097812;28;20123;-87
2021/05/23 01:59:08;;;;;;;1.20;0.52;;;;;;;6.08;98.43;92765.88;2089647;28;20242;-87
2021/05/23 02:00:11;;;;;;;0.90;0.50;;;;;;;6.02;98.69;92776.19;2089605;28;20053;-87
2021/05/23 02:01:11;;;;;;;0.52;0.52;;;;;;;5.98;97.97;92773.56;2097743;28;20032;-88
2021/05/23 02:02:12;;;;;;;2.17;0.60;;;;;;;5.97;98.00;92773.94;2102624;28;20026;-87
2021/05/23 02:03:15;;;;;;;0.30;0.30;;;;;;;6.06;97.77;92771.59;2105834;28;20072;-88
2021/05/23 02:05:21;;;;;;;0.90;0.60;;;;;;;6.00;98.32;92773.91;2133310;27;20190;-88
2021/05/23 02:06:22;;;;;;;0.55;0.40;;;;;;;5.93;98.99;92776.63;2107733;28;20162;-88
2021/05/23 02:07:23;;;;;;;1.02;0.50;;;;;;;5.95;99.47;92773.59;2089854;28;20759;-87
2021/05/23 02:08:25;;;;;;;0.30;0.30;;;;;;;6.05;96.55;92778.78;2114691;28;20108;-88
2021/05/23 02:09:26;;;;;;;1.48;0.50;;;;;;;6.05;95.47;92784.06;2106154;28;20031;-87
2021/05/23 02:10:28;;;;;;;1.42;0.50;;;;;;;5.98;97.20;92780.75;2088315;28;20820;-86
2021/05/23 02:11:28;;;;;;;0.63;0.43;;;;;;;5.82;97.73;92776.69;2097116;28;20051;-87
2021/05/23 02:12:29;;;;;;;0.65;0.40;;;;;;;5.84;95.46;92776.31;2089682;28;20649;-87
2021/05/23 02:13:30;;;;;;;1.05;0.40;;;;;;;5.94;96.74;92778.13;2090801;28;20029;-85
2021/05/23 02:14:30;;;;;;;1.75;0.50;;;;;;;5.91;95.35;92778.88;2101546;28;20025;-85
2021/05/23 02:15:32;;;;;;;1.05;0.52;;;;;;;5.84;97.10;92773.66;2100760;28;20500;-87
2021/05/23 02:16:33;;;;;;;0.40;0.40;;;;;;;5.82;97.11;92783.91;2093366;28;20025;-86
2021/05/23 02:17:38;;;;;;;0.40;0.40;;;;;;;5.80;98.67;92786.97;2092141;28;20052;-87
2021/05/23 02:18:39;;;;;;;0.82;0.50;;;;;;;5.76;99.00;92791.53;2102100;28;20469;-87
2021/05/23 02:19:44;;;;;;;1.13;0.40;;;;;;;5.76;99.21;92790.78;2099034;28;20025;-88
2021/05/23 02:20:45;;;;;;;1.55;0.60;;;;;;;5.78;97.89;92793.78;2111106;28;20106;-88
2021/05/23 02:21:48;;;;;;;0.40;0.40;;;;;;;5.72;98.49;92801.44;2096185;28;20025;-87
2021/05/23 02:22:50;;;;;;;1.55;0.50;;;;;;;5.67;98.57;92793.91;2100357;28;20028;-87
2021/05/23 02:23:53;;;;;;;0.77;0.50;;;;;;;5.74;99.82;92795.72;2101203;28;20016;-87
2021/05/23 02:24:54;;;;;;;0.70;0.40;;;;;;;5.67;100.00;92801.09;2087977;28;20572;-86
2021/05/23 02:25:55;;;;;;;0.68;0.45;;;;;;;5.66;100.00;92796.91;2097220;28;20048;-89
2021/05/23 02:26:56;;;;;;;0.88;0.40;;;;;;;5.65;100.00;92795.41;2104558;28;20576;-84
2021/05/23 02:28:01;;;;;;;0.98;0.60;;;;;;;5.62;100.00;92798.84;2096235;28;20078;-89
2021/05/23 02:29:02;;;;;;;0.82;0.40;;;;;;;5.62;100.00;92796.19;2088448;28;20021;-89
2021/05/23 02:30:09;;;;;;;0.50;0.50;;;;;;;5.69;100.00;92791.59;2085446;28;20454;-90
2021/05/23 02:31:10;;;;;;;2.17;0.40;;;;;;;5.65;100.00;92801.47;2094314;28;20025;-87
2021/05/23 02:32:10;;;;;;;2.08;0.50;;;;;;;5.59;100.00;92800.41;2100612;28;20406;-88
2021/05/23 02:33:13;;;;;;;1.50;0.60;;;;;;;5.60;100.00;92796.59;2091772;28;20065;-85
2021/05/23 02:34:14;;;;;;;0.98;0.38;;;;;;;5.64;100.00;92797.31;2105939;28;20025;-88
2021/05/23 02:35:21;;;;;;;0.63;0.40;;;;;;;5.59;100.00;92802.28;2097553;28;20012;-84
2021/05/23 02:36:22;;;;;;;0.30;0.30;;;;;;;5.65;100.00;92800.72;2095304;28;20021;-86
2021/05/23 02:37:22;;;;;;;0.55;0.40;;;;;;;5.60;100.00;92799.25;2095619;28;20089;-89
2021/05/23 02:38:24;;;;;;;2.28;0.50;;;;;;;5.63;100.00;92810.97;2093453;28;20116;-87
2021/05/23 02:39:24;;;;;;;1.35;0.47;;;;;;;5.56;99.67;92804.56;2100552;28;20016;-89
2021/05/23 02:40:29;;;;;;;0.60;0.40;;;;;;;5.60;100.00;92798.50;2099932;28;20045;-88
2021/05/23 02:41:30;;;;;;;1.95;0.57;;;;;;;5.54;100.00;92796.28;2096564;28;20450;-87
2021/05/23 02:42:30;;;;;;;0.80;0.43;;;;;;;5.50;100.00;92800.84;2103231;28;20074;-88
2021/05/23 02:43:32;;;;;;;1.20;0.50;;;;;;;5.53;100.00;92799.28;2100683;28;20020;-85
2021/05/23 02:44:33;;;;;;;0.73;0.47;;;;;;;5.61;100.00;92792.03;2097379;28;20028;-86
2021/05/23 02:45:35;;;;;;;1.42;0.40;;;;;;;5.62;100.00;92794.31;2096068;28;20034;-86
2021/05/23 02:46:37;;;;;;;1.73;0.40;;;;;;;5.59;99.35;92800.41;2090495;28;20109;-87
2021/05/23 02:47:40;;;;;;;0.63;0.50;;;;;;;5.71;96.66;92799.19;2094557;28;20123;-87
2021/05/23 02:48:41;;;;;;;1.25;0.52;;;;;;;5.64;98.55;92799.22;2089924;28;20077;-86
2021/05/23 02:49:43;;;;;;;0.40;0.40;;;;;;;5.64;98.35;92801.88;2094559;28;20064;-88
2021/05/23 02:50:46;;;;;;;1.00;0.50;;;;;;;5.64;96.45;92799.97;2096226;28;20068;-88
2021/05/23 02:51:47;;;;;;;0.50;0.50;;;;;;;5.66;98.98;92802.97;2096499;28;20028;-87
2021/05/23 02:52:48;;;;;;;0.40;0.40;;;;;;;5.74;98.24;92819.59;2087540;28;20029;-88
2021/05/23 02:53:48;;;;;;;0.50;0.50;;;;;;;5.66;97.99;92826.09;2095681;28;20485;-87
2021/05/23 02:54:49;;;;;;;3.55;0.65;;;;;;;5.66;98.96;92826.09;2096916;28;20021;-86
2021/05/23 02:55:51;;;;;;;1.42;0.50;;;;;;;5.67;99.20;92831.00;2088037;28;20595;-89
2021/05/23 02:56:51;;;;;;;2.50;0.50;;;;;;;5.72;99.50;92835.16;2094217;28;20037;-87
2021/05/23 02:57:53;;;;;;;0.90;0.50;;;;;;;5.70;99.06;92832.13;2095209;28;20021;-87
2021/05/23 02:58:53;;;;;;;3.17;0.50;;;;;;;5.73;98.02;92834.75;2102143;28;20691;-89
2021/05/23 02:59:54;;;;;;;0.90;0.43;;;;;;;5.62;98.11;92830.66;2105935;28;20111;-90
2021/05/23 03:00:55;;;;;;;2.10;0.60;;;;;;;5.66;98.59;92831.38;2103816;28;20027;-85
2021/05/23 03:01:56;;;;;;;1.25;0.60;;;;;;;5.60;98.26;92843.56;2110887;28;20022;-86
2021/05/23 03:02:57;;;;;;;0.82;0.60;;;;;;;5.51;99.69;92833.41;2091777;28;20470;-88
2021/05/23 03:03:58;;;;;;;1.10;0.60;;;;;;;5.55;100.00;92828.84;2095765;28;20055;-88
2021/05/23 03:04:59;;;;;;;0.50;0.50;;;;;;;5.60;99.95;92835.63;2093108;28;20040;-86
2021/05/23 03:06:00;;;;;;;2.00;0.50;;;;;;;5.63;98.89;92840.91;2093220;28;20478;-88
2021/05/23 03:07:01;;;;;;;2.13;0.50;;;;;;;5.55;98.90;92840.19;2108085;28;20031;-90
2021/05/23 03:08:02;;;;;;;2.00;0.60;;;;;;;5.52;99.74;92840.97;2090610;28;20067;-88
2021/05/23 03:09:03;;;;;;;1.63;0.60;;;;;;;5.53;98.88;92837.19;2094243;28;20021;-87
2021/05/23 03:10:08;;;;;;;0.70;0.50;;;;;;;5.65;99.33;92838.59;2089337;28;20021;-89
2021/05/23 03:11:09;;;;;;;0.40;0.40;;;;;;;5.77;97.61;92840.78;2101906;28;20016;-88
2021/05/23 03:12:10;;;;;;;0.73;0.50;;;;;;;5.75;97.89;92851.03;2090128;28;20049;-87
2021/05/23 03:13:11;;;;;;;1.80;0.88;;;;;;;5.68;99.05;92850.31;2087597;28;20029;-87
2021/05/23 03:14:13;;;;;;;2.28;0.60;;;;;;;5.69;98.71;92855.22;2099070;28;20794;-87
2021/05/23 03:15:17;;;;;;;1.17;0.65;;;;;;;5.60;99.23;92852.28;2098747;28;20058;-87
2021/05/23 03:16:17;;;;;;;2.33;0.60;;;;;;;5.55;98.98;92850.03;2090369;28;20036;-86
2021/05/23 03:17:18;;;;;;;4.63;0.80;;;;;;;5.47;99.32;92851.22;2081966;28;20080;-85
2021/05/23 03:18:19;;;;;;;2.22;0.80;;;;;;;5.51;99.79;92847.41;2093827;28;20477;-86
2021/05/23 03:19:19;;;;;;;2.35;0.50;;;;;;;5.47;100.00;92851.97;2093019;28;20026;-86
2021/05/23 03:20:21;;;;;;;1.10;0.45;;;;;;;5.52;100.00;92848.16;2083461;28;20063;-86
2021/05/23 03:21:22;;;;;;;2.10;0.70;;;;;;;5.57;99.84;92853.03;2082491;28;20021;-86
2021/05/23 03:22:23;;;;;;;2.25;0.60;;;;;;;5.50;98.74;92853.84;2085982;28;20017;-87
2021/05/23 03:23:23;;;;;;;2.33;0.60;;;;;;;5.40;100.00;92848.63;2078849;28;20522;-88
2021/05/23 03:24:24;;;;;;;1.15;0.57;;;;;;;5.47;100.00;92851.97;2093750;28;20037;-88
2021/05/23 03:25:29;;;;;;;2.05;0.65;;;;;;;5.42;100.00;92849.75;2082170;28;20075;-88
2021/05/23 03:26:30;;;;;;;2.47;0.65;;;;;;;5.47;100.00;92859.94;2095880;28;20111;-84
2021/05/23 03:27:30;;;;;;;3.95;0.70;;;;;;;5.49;99.70;92854.25;2098260;28;20471;-85
2021/05/23 03:28:31;;;;;;;0.77;0.70;;;;;;;5.50;100.00;92855.75;2098255;28;20446;-85
2021/05/23 03:29:32;;;;;;;0.80;0.50;;;;;;;5.53;100.00;92863.69;2082053;28;20057;-85
2021/05/23 03:30:41;;;;;;;2.05;0.73;;;;;;;5.55;100.00;92864.03;2097580;28;20436;-87
2021/05/23 03:31:42;;;;;;;4.88;0.70;;;;;;;5.54;100.00;92859.16;2091223;28;20025;-86
2021/05/23 03:32:43;;;;;;;2.20;0.60;;;;;;;5.49;100.00;92856.91;2085267;28;20032;-85
2021/05/23 03:33:43;;;;;;;1.02;0.57;;;;;;;5.51;100.00;92862.56;2102392;28;20017;-87
2021/05/23 03:34:44;;;;;;;1.83;0.70;;;;;;;5.48;100.00;92850.81;2098653;28;20021;-88
2021/05/23 03:35:45;;;;;;;1.05;0.50;;;;;;;5.58;100.00;92856.47;2099270;28;20119;-86
2021/05/23 03:36:45;;;;;;;1.95;1.00;;;;;;;5.66;99.49;92853.34;2088794;28;20570;-86
2021/05/23 03:37:46;;;;;;;1.85;0.77;;;;;;;5.46;99.70;92853.13;2085487;28;20058;-85
2021/05/23 03:38:48;;;;;;;1.65;0.77;;;;;;;5.37;100.00;92862.66;2094171;28;20021;-87
2021/05/23 03:39:48;;;;;;;2.15;0.70;;;;;;;5.35;100.00;92852.44;2098528;28;20116;-86
2021/05/23 03:40:49;;;;;;;3.72;0.77;;;;;;;5.37;100.00;92860.75;2095004;28;20504;-88
2021/05/23 03:41:50;;;;;;;0.68;0.68;;;;;;;5.33;100.00;92856.63;2090115;28;20017;-86
2021/05/23 03:42:50;;;;;;;0.80;0.60;;;;;;;5.38;100.00;92854.31;2097696;28;20488;-85
2021/05/23 03:43:51;;;;;;;1.85;0.60;;;;;;;5.35;100.00;92856.97;2094221;28;20033;-85
2021/05/23 03:44:52;;;;;;;0.85;0.63;;;;;;;5.26;100.00;92866.13;2090831;28;20029;-85
2021/05/23 03:45:53;;;;;;;1.42;0.60;;;;;;;5.27;100.00;92864.25;2086043;28;20021;-86
2021/05/23 03:46:53;;;;;;;0.93;0.50;;;;;;;5.30;100.00;92863.44;2099015;28;20037;-83
2021/05/23 03:47:54;;;;;;;1.58;0.55;;;;;;;5.31;100.00;92859.66;2106961;28;20509;-86
2021/05/23 03:48:55;;;;;;;1.20;0.68;;;;;;;5.30;100.00;92874.03;2105016;28;20024;-86
2021/05/23 03:49:55;;;;;;;1.25;0.60;;;;;;;5.25;100.00;92863.84;2098241;28;20029;-87
2021/05/23 03:50:56;;;;;;;2.55;0.70;;;;;;;5.21;100.00;92865.78;2081966;28;20487;-86
2021/05/23 03:51:57;;;;;;;1.35;0.60;;;;;;;5.15;100.00;92865.44;2093857;28;20021;-86
2021/05/23 03:52:58;;;;;;;1.42;0.60;;;;;;;5.14;100.00;92865.84;2095832;28;20528;-86
2021/05/23 03:53:59;;;;;;;3.33;0.65;;;;;;;5.13;100.00;92866.94;2086055;28;20032;-86
2021/05/23 03:55:00;;;;;;;1.48;0.60;;;;;;;5.24;100.00;92867.66;2106707;28;20020;-84
2021/05/23 03:56:00;;;;;;;1.02;0.52;;;;;;;5.20;100.00;92869.56;2092526;28;20020;-85
2021/05/23 03:57:02;;;;;;;1.80;0.57;;;;;;;5.22;100.00;92865.41;2082966;28;20173;-86
2021/05/23 03:58:03;;;;;;;0.95;0.60;;;;;;;5.39;100.00;92866.41;2094360;28;20137;-86
2021/05/23 03:59:04;;;;;;;1.38;0.50;;;;;;;5.28;100.00;92873.69;2084051;28;20029;-85
2021/05/23 04:00:07;;;;;;;1.63;0.68;;;;;;;5.26;100.00;92875.97;2106577;28;20028;-88
2021/05/23 04:01:08;;;;;;;3.13;0.77;;;;;;;5.13;100.00;92874.91;2090714;28;20044;-84
2021/05/23 04:02:08;;;;;;;2.13;0.80;;;;;;;5.07;100.00;92874.56;2083626;28;20017;-86
2021/05/23 04:03:09;;;;;;;1.60;0.60;;;;;;;5.11;100.00;92869.25;2096712;28;20048;-85
2021/05/23 04:04:10;;;;;;;3.67;0.80;;;;;;;5.14;100.00;92877.19;2095469;28;20425;-85
2021/05/23 04:05:12;;;;;;;1.02;0.60;;;;;;;5.20;100.00;92883.56;2091777;28;20052;-85
2021/05/23 04:06:12;;;;;;;2.00;0.63;;;;;;;5.23;100.00;92880.16;2093741;28;20094;-87
2021/05/23 04:07:18;;;;;;;2.28;0.80;;;;;;;5.09;100.00;92885.50;2091131;28;20098;-86
2021/05/23 04:08:19;;;;;;;1.98;0.60;;;;;;;5.07;100.00;92885.16;2092601;28;20025;-87
2021/05/23 04:09:20;;;;;;;2.65;0.80;;;;;;;5.09;100.00;92888.16;2092940;28;20024;-86
2021/05/23 04:10:27;;;;;;;1.20;0.80;;;;;;;5.10;100.00;92892.34;2093536;28;20078;-87
2021/05/23 04:11:34;;;;;;;3.33;1.00;;;;;;;5.14;100.00;92895.72;2093511;28;20024;-86
2021/05/23 04:12:40;;;;;;;2.50;0.70;;;;;;;5.09;100.00;92903.31;2089504;28;20120;-87
2021/05/23 04:13:41;;;;;;;1.92;0.63;;;;;;;5.08;100.00;92899.16;2084488;28;20426;-87
2021/05/23 04:14:42;;;;;;;3.35;0.82;;;;;;;5.01;100.00;92900.69;2087376;28;20474;-86
2021/05/23 04:15:42;;;;;;;2.45;0.90;;;;;;;4.97;100.00;92905.25;2088171;28;20025;-85
2021/05/23 04:16:43;;;;;;;3.38;0.80;;;;;;;4.96;100.00;92895.81;2086157;28;20087;-85
2021/05/23 04:17:45;;;;;;;2.90;0.75;;;;;;;5.00;100.00;92895.78;2090304;28;20027;-85
2021/05/23 04:18:45;;;;;;;2.97;0.70;;;;;;;5.00;100.00;92901.06;2091380;28;20032;-85
2021/05/23 04:19:46;;;;;;;3.90;1.20;;;;;;;4.95;100.00;92902.22;2096692;28;20072;-85
2021/05/23 04:20:47;;;;;;;1.92;0.90;;;;;;;5.03;100.00;92905.59;2094627;28;20080;-86
2021/05/23 04:21:47;;;;;;;2.55;0.90;;;;;;;5.08;100.00;92904.44;2098281;28;20036;-84
2021/05/23 04:22:50;;;;;;;2.05;0.88;;;;;;;5.07;100.00;92906.34;2082511;28;20037;-84
2021/05/23 04:23:51;;;;;;;2.00;1.00;;;;;;;5.01;100.00;92900.69;2098051;28;20028;-87
2021/05/23 04:24:51;;;;;;;1.70;0.80;;;;;;;5.09;100.00;92898.00;2092862;28;20108;-87
2021/05/23 04:25:52;;;;;;;2.28;0.90;;;;;;;5.14;100.00;92908.22;2097711;28;20027;-86
2021/05/23 04:26:53;;;;;;;2.75;0.75;;;;;;;5.10;100.00;92918.06;2101908;28;20032;-84
2021/05/23 04:27:54;;;;;;;2.60;0.65;;;;;;;5.10;100.00;92912.78;2102748;28;20114;-85
2021/05/23 04:28:55;;;;;;;4.07;1.45;;;;;;;5.03;100.00;92924.91;2081216;28;20021;-85
2021/05/23 04:29:56;;;;;;;1.02;0.75;;;;;;;5.02;100.00;92923.38;2087623;28;20071;-86
2021/05/23 04:30:57;;;;;;;1.48;0.80;;;;;;;5.04;100.00;92926.41;2087007;28;20450;-85
2021/05/23 04:31:59;;;;;;;2.53;0.90;;;;;;;5.06;100.00;92928.69;2090036;28;20524;-86
2021/05/23 04:33:01;;;;;;;2.05;0.82;;;;;;;5.00;100.00;92924.91;2088918;28;20059;-86
2021/05/23 04:34:02;;;;;;;1.15;0.73;;;;;;;5.15;100.00;92922.97;2082588;28;20077;-87
2021/05/23 04:35:04;;;;;;;1.75;0.77;;;;;;;5.15;98.86;92925.63;2091335;28;20078;-86
2021/05/23 04:36:05;;;;;;;1.40;0.60;;;;;;;5.15;99.73;92922.97;2090184;28;20105;-86
2021/05/23 04:37:06;;;;;;;1.67;0.65;;;;;;;5.15;100.00;92926.38;2091136;28;20082;-85
2021/05/23 04:38:07;;;;;;;2.15;0.95;;;;;;;5.17;99.46;92929.38;2092192;28;20034;-86
2021/05/23 04:39:07;;;;;;;2.42;0.70;;;;;;;5.13;98.67;92925.22;2084401;28;20033;-86
2021/05/23 04:40:09;;;;;;;2.10;0.70;;;;;;;5.17;99.04;92928.63;2091787;28;20035;-88
2021/05/23 04:41:13;;;;;;;2.03;0.73;;;;;;;5.17;99.15;92925.97;2089118;28;20032;-88
2021/05/23 04:42:14;;;;;;;0.50;0.50;;;;;;;5.16;97.61;92932.41;2085260;28;20025;-88
2021/05/23 04:43:15;;;;;;;2.63;0.60;;;;;;;5.17;99.20;92923.31;2086843;28;20013;-87
2021/05/23 04:44:16;;;;;;;2.97;0.90;;;;;;;5.23;98.97;92924.44;2102331;28;20578;-88
2021/05/23 04:45:16;;;;;;;1.90;0.70;;;;;;;5.30;97.17;92924.41;2093848;28;20108;-88
2021/05/23 04:46:17;;;;;;;1.73;0.70;;;;;;;5.32;97.44;92922.13;2092463;28;20032;-87
2021/05/23 04:47:18;;;;;;;1.48;0.70;;;;;;;5.26;98.87;92924.41;2085886;28;20403;-87
2021/05/23 04:48:19;;;;;;;1.23;0.60;;;;;;;5.20;99.36;92933.16;2093546;28;20473;-87
2021/05/23 04:49:19;;;;;;;3.20;1.00;;;;;;;5.31;99.18;92931.19;2093241;28;20466;-89
2021/05/23 04:50:21;;;;;;;0.98;0.70;;;;;;;5.28;97.89;92939.94;2094203;28;20031;-87
2021/05/23 04:51:21;;;;;;;2.13;0.70;;;;;;;5.34;98.28;92932.34;2083629;28;20520;-87
2021/05/23 04:52:22;;;;;;;1.73;0.70;;;;;;;5.31;99.30;92939.16;2081155;28;20017;-87
2021/05/23 04:53:23;;;;;;;1.33;0.52;;;;;;;5.40;96.01;92930.78;2091079;28;20044;-88
2021/05/23 04:54:24;;;;;;;0.85;0.50;;;;;;;5.31;97.82;92936.50;2092342;28;20072;-85
2021/05/23 04:55:24;;;;;;;2.33;0.70;;;;;;;5.34;98.80;92929.69;2085179;28;20435;-88
2021/05/23 04:56:25;;;;;;;1.38;0.70;;;;;;;5.30;99.06;92930.44;2095271;28;20623;-89